Time;durP1;ratioP1;P1;durP2;ratioP2;P2;SDS_P1;SDS_P2;PMS_P1;PMS_P2;Temp;Humidity;BMP_temperature;BMP_pressure;BME280_temperature;BME280_humidity;BME280_pressure;Samples;Min_cycle;Max_cycle;Signal;HPM_P1;HPM_P2
2023/07/26 00:00:56;;;;;;;4.72;2.60;;;;;;;;;;5112718;28;20031;-60
2023/07/26 00:03:21;;;;;;;7.28;2.63;;;;;;;;;;5111018;28;20529;-60
2023/07/26 00:05:48;;;;;;;4.07;2.60;;;;;;;;;;5112262;28;20084;-60
2023/07/26 00:08:13;;;;;;;3.33;2.35;;;;;;;;;;5109833;28;20051;-60
2023/07/26 00:10:42;;;;;;;4.55;2.47;;;;;;;;;;5111875;28;20070;-60
2023/07/26 00:13:08;;;;;;;5.20;2.40;;;;;;;;;;5112667;28;20057;-61
2023/07/26 00:15:33;;;;;;;3.75;2.40;;;;;;;;;;5111592;28;20027;-61
2023/07/26 00:17:58;;;;;;;5.18;2.75;;;;;;;;;;5110460;28;20027;-61
2023/07/26 00:20:24;;;;;;;4.50;2.30;;;;;;;;;;5111981;28;20537;-61
2023/07/26 00:22:49;;;;;;;4.80;2.55;;;;;;;;;;5112450;28;20028;-61
2023/07/26 00:25:14;;;;;;;5.32;2.50;;;;;;;;;;5112437;28;20106;-61
2023/07/26 00:27:40;;;;;;;4.50;2.60;;;;;;;;;;5110700;28;20476;-61
2023/07/26 00:30:06;;;;;;;5.07;2.70;;;;;;;;;;5111484;28;20127;-61
2023/07/26 00:32:31;;;;;;;4.85;2.78;;;;;;;;;;5109568;28;20034;-60
2023/07/26 00:34:57;;;;;;;6.30;3.13;;;;;;;;;;5112105;28;20429;-63
2023/07/26 00:37:22;;;;;;;4.85;2.67;;;;;;;;;;5111244;28;20031;-61
2023/07/26 00:39:48;;;;;;;6.15;2.90;;;;;;;;;;5111520;28;20548;-61
2023/07/26 00:42:17;;;;;;;4.88;2.85;;;;;;;;;;5112080;28;20491;-60
2023/07/26 00:44:43;;;;;;;4.60;2.80;;;;;;;;;;5111858;28;20027;-60
2023/07/26 00:47:08;;;;;;;4.97;2.88;;;;;;;;;;5111524;28;20371;-60
2023/07/26 00:49:34;;;;;;;6.03;3.08;;;;;;;;;;5110103;28;20356;-60
2023/07/26 00:51:59;;;;;;;8.38;2.95;;;;;;;;;;5111929;28;20024;-60
2023/07/26 00:54:24;;;;;;;5.53;2.72;;;;;;;;;;5111425;28;20032;-60
2023/07/26 00:56:50;;;;;;;5.35;3.00;;;;;;;;;;5112144;28;20024;-60
2023/07/26 00:59:15;;;;;;;5.80;2.80;;;;;;;;;;5110782;28;20024;-60
2023/07/26 01:01:41;;;;;;;9.43;3.10;;;;;;;;;;5110121;28;20447;-60
2023/07/26 01:04:06;;;;;;;7.40;3.10;;;;;;;;;;5112179;28;20041;-60
2023/07/26 01:06:46;;;;;;;5.43;2.85;;;;;;;;;;5111234;28;20024;-60
2023/07/26 01:09:46;;;;;;;6.15;3.10;;;;;;;;;;5110935;28;20036;-59
2023/07/26 01:12:19;;;;;;;5.65;3.15;;;;;;;;;;5111478;28;20042;-60
2023/07/26 01:15:12;;;;;;;4.78;3.05;;;;;;;;;;5110231;28;20059;-62
2023/07/26 01:17:38;;;;;;;6.05;3.20;;;;;;;;;;5108316;28;20104;-60
2023/07/26 01:20:03;;;;;;;4.80;3.00;;;;;;;;;;5109968;28;20035;-59
2023/07/26 01:22:29;;;;;;;6.65;3.42;;;;;;;;;;5111074;28;20426;-61
2023/07/26 01:24:54;;;;;;;4.97;3.10;;;;;;;;;;5113788;28;20115;-61
2023/07/26 01:27:20;;;;;;;4.85;3.38;;;;;;;;;;5111879;28;20468;-62
2023/07/26 01:29:45;;;;;;;5.50;3.15;;;;;;;;;;5114225;28;20126;-61
2023/07/26 01:32:14;;;;;;;5.32;3.28;;;;;;;;;;5115770;28;20031;-61
2023/07/26 01:34:41;;;;;;;6.03;3.30;;;;;;;;;;5112298;28;20042;-61
2023/07/26 01:37:07;;;;;;;6.60;3.30;;;;;;;;;;5115732;28;20035;-61
2023/07/26 01:39:33;;;;;;;4.28;3.00;;;;;;;;;;5111531;28;20392;-61
2023/07/26 01:41:59;;;;;;;5.18;3.28;;;;;;;;;;5114871;28;20101;-61
2023/07/26 01:44:24;;;;;;;6.10;3.40;;;;;;;;;;5114712;27;20030;-61
2023/07/26 01:46:52;;;;;;;6.07;3.60;;;;;;;;;;5115709;28;20035;-60
2023/07/26 01:49:18;;;;;;;4.82;3.25;;;;;;;;;;5113970;28;20107;-60
2023/07/26 01:51:44;;;;;;;5.25;3.50;;;;;;;;;;5114433;28;20376;-61
2023/07/26 01:54:10;;;;;;;7.72;3.30;;;;;;;;;;5115313;28;20469;-60
2023/07/26 01:56:36;;;;;;;5.28;3.28;;;;;;;;;;5114154;28;20027;-59
2023/07/26 01:59:01;;;;;;;5.78;3.58;;;;;;;;;;5113602;28;20031;-62
2023/07/26 02:01:29;;;;;;;5.22;3.50;;;;;;;;;;5113140;28;20487;-61
2023/07/26 02:03:54;;;;;;;5.32;3.58;;;;;;;;;;5114038;28;20027;-62
2023/07/26 02:06:22;;;;;;;10.07;3.38;;;;;;;;;;5113880;28;20034;-60
2023/07/26 02:08:48;;;;;;;5.43;3.58;;;;;;;;;;5112986;28;20031;-61
2023/07/26 02:11:13;;;;;;;7.93;3.83;;;;;;;;;;5114631;28;20035;-61
2023/07/26 02:13:38;;;;;;;7.05;3.70;;;;;;;;;;5114098;28;20028;-61
2023/07/26 02:16:04;;;;;;;5.43;3.58;;;;;;;;;;5114680;28;20421;-60
2023/07/26 02:18:30;;;;;;;7.28;3.50;;;;;;;;;;5113137;28;20036;-60
2023/07/26 02:20:55;;;;;;;7.40;3.80;;;;;;;;;;5114609;28;20038;-60
2023/07/26 02:23:20;;;;;;;6.68;3.78;;;;;;;;;;5114527;28;20371;-61
2023/07/26 02:25:46;;;;;;;5.90;3.90;;;;;;;;;;5109784;28;20104;-61
2023/07/26 02:28:11;;;;;;;5.57;3.88;;;;;;;;;;5114394;28;20057;-62
2023/07/26 02:30:37;;;;;;;6.18;4.20;;;;;;;;;;5113386;28;20050;-62
2023/07/26 02:33:02;;;;;;;7.78;4.25;;;;;;;;;;5114350;28;20118;-62
2023/07/26 02:35:28;;;;;;;10.30;4.93;;;;;;;;;;5112837;28;20039;-62
2023/07/26 02:37:53;;;;;;;8.70;5.13;;;;;;;;;;5113159;28;20031;-61
2023/07/26 02:40:18;;;;;;;12.63;6.25;;;;;;;;;;5113687;28;20036;-60
2023/07/26 02:42:44;;;;;;;10.40;6.88;;;;;;;;;;5113565;28;20180;-60
2023/07/26 02:45:09;;;;;;;12.40;7.32;;;;;;;;;;5112570;28;20035;-60
2023/07/26 02:47:35;;;;;;;10.43;7.28;;;;;;;;;;5113502;28;20452;-60
2023/07/26 02:50:03;;;;;;;13.35;7.97;;;;;;;;;;5113849;28;20028;-60
2023/07/26 02:52:28;;;;;;;12.98;8.15;;;;;;;;;;5111466;28;20034;-61
2023/07/26 02:54:54;;;;;;;13.02;8.02;;;;;;;;;;5113525;28;20375;-60
2023/07/26 02:57:19;;;;;;;11.55;8.20;;;;;;;;;;5114023;28;20078;-60
2023/07/26 02:59:44;;;;;;;13.43;8.43;;;;;;;;;;5113109;28;20533;-60
2023/07/26 03:02:10;;;;;;;13.88;8.57;;;;;;;;;;5114011;28;20479;-60
2023/07/26 03:04:35;;;;;;;14.98;8.70;;;;;;;;;;5110390;28;20031;-60
2023/07/26 03:07:00;;;;;;;15.98;8.93;;;;;;;;;;5113913;28;20127;-61
2023/07/26 03:09:26;;;;;;;16.55;9.10;;;;;;;;;;5113229;28;20023;-60
2023/07/26 03:11:51;;;;;;;13.90;8.93;;;;;;;;;;5113237;28;20031;-60
2023/07/26 03:14:16;;;;;;;13.98;8.45;;;;;;;;;;5110182;28;20063;-60
2023/07/26 03:16:42;;;;;;;13.35;9.10;;;;;;;;;;5111624;27;20054;-60
2023/07/26 03:19:07;;;;;;;13.20;8.45;;;;;;;;;;5113688;28;20114;-60
2023/07/26 03:21:33;;;;;;;12.45;8.20;;;;;;;;;;5112483;28;20027;-61
2023/07/26 03:23:58;;;;;;;11.63;7.68;;;;;;;;;;5109623;28;20386;-60
2023/07/26 03:26:23;;;;;;;12.50;7.90;;;;;;;;;;5112271;28;20066;-60
2023/07/26 03:28:49;;;;;;;15.48;8.45;;;;;;;;;;5112529;28;20868;-59
2023/07/26 03:31:14;;;;;;;11.93;7.70;;;;;;;;;;5112068;27;20038;-58
2023/07/26 03:33:39;;;;;;;15.15;8.02;;;;;;;;;;5111639;28;20023;-59
2023/07/26 03:36:05;;;;;;;12.18;7.82;;;;;;;;;;5113332;28;20027;-58
2023/07/26 03:38:30;;;;;;;13.55;7.95;;;;;;;;;;5110542;28;20035;-60
2023/07/26 03:40:56;;;;;;;14.38;7.88;;;;;;;;;;5111481;28;20431;-58
2023/07/26 03:43:21;;;;;;;12.40;7.82;;;;;;;;;;5108889;28;20481;-60
2023/07/26 03:45:47;;;;;;;15.48;8.63;;;;;;;;;;5111711;28;20046;-61
2023/07/26 03:48:13;;;;;;;12.73;7.82;;;;;;;;;;5113432;28;20111;-59
2023/07/26 03:50:39;;;;;;;11.85;7.93;;;;;;;;;;5110527;28;20035;-59
2023/07/26 03:53:04;;;;;;;11.85;7.80;;;;;;;;;;5112584;28;20500;-60
2023/07/26 03:55:29;;;;;;;11.52;7.10;;;;;;;;;;5111230;28;20027;-60
2023/07/26 03:57:57;;;;;;;10.82;7.53;;;;;;;;;;5112595;28;20475;-60
2023/07/26 04:00:22;;;;;;;10.68;7.15;;;;;;;;;;5113032;28;20036;-60
2023/07/26 04:02:47;;;;;;;16.77;7.53;;;;;;;;;;5109082;28;20035;-59
2023/07/26 04:05:13;;;;;;;11.88;7.15;;;;;;;;;;5113030;28;20035;-60
2023/07/26 04:07:40;;;;;;;13.13;8.45;;;;;;;;;;5111989;28;20024;-59
2023/07/26 04:10:06;;;;;;;14.10;7.60;;;;;;;;;;5112686;28;20535;-60
2023/07/26 04:12:31;;;;;;;13.30;8.25;;;;;;;;;;5109720;28;20111;-61
2023/07/26 04:14:57;;;;;;;11.85;7.88;;;;;;;;;;5112645;28;20384;-60
2023/07/26 04:17:22;;;;;;;12.32;8.00;;;;;;;;;;5112919;28;20051;-60
2023/07/26 04:19:47;;;;;;;12.07;7.53;;;;;;;;;;5111840;28;20411;-60
2023/07/26 04:22:13;;;;;;;14.80;8.23;;;;;;;;;;5109185;28;20047;-60
2023/07/26 04:24:42;;;;;;;12.02;7.57;;;;;;;;;;5111251;28;20479;-60
2023/07/26 04:27:07;;;;;;;12.30;7.18;;;;;;;;;;5112402;28;20043;-59
2023/07/26 04:29:33;;;;;;;9.15;6.80;;;;;;;;;;5111614;28;20043;-59
2023/07/26 04:31:58;;;;;;;11.77;6.78;;;;;;;;;;5110145;28;20539;-59
2023/07/26 04:34:24;;;;;;;10.82;7.05;;;;;;;;;;5111738;28;20031;-59
2023/07/26 04:36:49;;;;;;;10.70;6.50;;;;;;;;;;5111697;28;20042;-59
2023/07/26 04:39:14;;;;;;;11.52;7.45;;;;;;;;;;5112536;28;20027;-61
2023/07/26 04:41:40;;;;;;;14.77;7.50;;;;;;;;;;5109756;28;20020;-59
2023/07/26 04:44:05;;;;;;;12.05;7.88;;;;;;;;;;5110851;28;20119;-61
2023/07/26 04:46:30;;;;;;;11.05;7.40;;;;;;;;;;5112314;28;20023;-61
2023/07/26 04:48:56;;;;;;;11.68;7.95;;;;;;;;;;5111689;28;20059;-60
2023/07/26 04:51:23;;;;;;;12.07;7.95;;;;;;;;;;5109950;28;20032;-59
2023/07/26 04:53:48;;;;;;;13.23;8.52;;;;;;;;;;5110784;28;20563;-60
2023/07/26 04:56:15;;;;;;;17.17;9.38;;;;;;;;;;5112329;28;20103;-59
2023/07/26 04:58:41;;;;;;;13.65;8.98;;;;;;;;;;5111426;28;20051;-60
2023/07/26 05:01:06;;;;;;;12.88;8.38;;;;;;;;;;5112119;28;20028;-60
2023/07/26 05:03:32;;;;;;;16.23;9.30;;;;;;;;;;5113999;28;20460;-61
2023/07/26 05:05:58;;;;;;;14.15;8.65;;;;;;;;;;5115765;28;20031;-60
2023/07/26 05:08:23;;;;;;;13.45;8.65;;;;;;;;;;5116537;28;20059;-60
2023/07/26 05:10:50;;;;;;;17.63;8.55;;;;;;;;;;5114035;28;20032;-60
2023/07/26 05:13:16;;;;;;;14.20;9.10;;;;;;;;;;5112303;28;20433;-60
2023/07/26 05:15:41;;;;;;;13.50;8.70;;;;;;;;;;5115189;28;20111;-61
2023/07/26 05:18:07;;;;;;;15.18;8.60;;;;;;;;;;5116290;28;20055;-60
2023/07/26 05:20:32;;;;;;;14.88;9.18;;;;;;;;;;5113968;28;20133;-61
2023/07/26 05:22:58;;;;;;;15.32;9.63;;;;;;;;;;5114028;28;20061;-60
2023/07/26 05:25:23;;;;;;;15.60;8.88;;;;;;;;;;5116343;28;20032;-60
2023/07/26 05:27:48;;;;;;;13.98;9.07;;;;;;;;;;5115140;28;20140;-60
2023/07/26 05:30:18;;;;;;;19.67;8.90;;;;;;;;;;5116119;28;20372;-59
2023/07/26 05:32:44;;;;;;;13.65;8.98;;;;;;;;;;5111796;28;20028;-60
2023/07/26 05:35:13;;;;;;;13.23;9.55;;;;;;;;;;5115124;28;20042;-60
2023/07/26 05:37:38;;;;;;;13.35;8.50;;;;;;;;;;5114937;28;20167;-61
2023/07/26 05:40:05;;;;;;;14.73;8.95;;;;;;;;;;5115486;28;20148;-59
2023/07/26 05:42:32;;;;;;;13.57;8.82;;;;;;;;;;5114528;28;20055;-59
2023/07/26 05:44:57;;;;;;;12.90;8.90;;;;;;;;;;5114791;28;20698;-59
2023/07/26 05:47:23;;;;;;;12.57;8.65;;;;;;;;;;5115823;28;20463;-59
2023/07/26 05:49:48;;;;;;;12.30;8.60;;;;;;;;;;5114588;27;20074;-60
2023/07/26 05:52:13;;;;;;;12.63;8.27;;;;;;;;;;5113496;28;20436;-60
2023/07/26 05:54:39;;;;;;;11.70;8.30;;;;;;;;;;5114600;28;20028;-58
2023/07/26 05:57:05;;;;;;;14.10;8.57;;;;;;;;;;5115338;28;20460;-60
2023/07/26 05:59:30;;;;;;;12.38;7.95;;;;;;;;;;5114145;28;20398;-60
2023/07/26 06:01:58;;;;;;;12.05;7.82;;;;;;;;;;5112574;27;20023;-60
2023/07/26 06:04:23;;;;;;;13.05;7.50;;;;;;;;;;5115330;28;20069;-58
2023/07/26 06:06:52;;;;;;;11.93;8.05;;;;;;;;;;5114834;28;20040;-58
2023/07/26 06:09:17;;;;;;;9.90;6.68;;;;;;;;;;5115331;28;20125;-60
2023/07/26 06:11:42;;;;;;;10.63;6.82;;;;;;;;;;5110324;28;20032;-60
2023/07/26 06:14:08;;;;;;;10.00;6.90;;;;;;;;;;5110570;28;20482;-61
2023/07/26 06:16:34;;;;;;;11.20;6.88;;;;;;;;;;5115106;28;20384;-59
2023/07/26 06:18:59;;;;;;;9.25;6.45;;;;;;;;;;5110033;28;20797;-60
2023/07/26 06:21:25;;;;;;;8.88;6.38;;;;;;;;;;5114589;28;20044;-60
2023/07/26 06:23:50;;;;;;;9.68;6.30;;;;;;;;;;5113878;28;20032;-60
2023/07/26 06:26:16;;;;;;;9.23;6.28;;;;;;;;;;5113666;28;20024;-59
2023/07/26 06:28:41;;;;;;;12.20;6.63;;;;;;;;;;5108809;28;20052;-60
2023/07/26 06:31:07;;;;;;;9.70;6.03;;;;;;;;;;5114346;28;20039;-60
2023/07/26 06:33:32;;;;;;;13.38;6.50;;;;;;;;;;5113440;28;20064;-60
2023/07/26 06:35:58;;;;;;;11.43;6.70;;;;;;;;;;5113512;28;20031;-60
2023/07/26 06:38:23;;;;;;;8.75;6.30;;;;;;;;;;5114802;28;20379;-60
2023/07/26 06:40:49;;;;;;;10.20;6.55;;;;;;;;;;5113932;28;20034;-59
2023/07/26 06:43:14;;;;;;;9.60;6.80;;;;;;;;;;5114262;28;20042;-57
2023/07/26 06:45:47;;;;;;;11.55;7.05;;;;;;;;;;5111193;28;20474;-60
2023/07/26 06:48:13;;;;;;;11.93;7.00;;;;;;;;;;5115193;28;20042;-57
2023/07/26 06:50:39;;;;;;;9.32;6.28;;;;;;;;;;5115292;28;20468;-60
2023/07/26 06:53:05;;;;;;;9.95;6.45;;;;;;;;;;5112740;28;20032;-57
2023/07/26 06:55:32;;;;;;;9.50;6.57;;;;;;;;;;5110800;28;20107;-53
2023/07/26 06:57:58;;;;;;;10.93;6.70;;;;;;;;;;5113433;28;20040;-55
2023/07/26 07:00:23;;;;;;;12.05;6.70;;;;;;;;;;5114514;28;20077;-56
2023/07/26 07:02:48;;;;;;;9.95;6.50;;;;;;;;;;5113211;27;20460;-58
2023/07/26 07:05:14;;;;;;;10.88;6.55;;;;;;;;;;5110999;28;20084;-54
2023/07/26 07:07:39;;;;;;;10.95;6.35;;;;;;;;;;5113763;28;20503;-59
2023/07/26 07:10:05;;;;;;;9.23;6.40;;;;;;;;;;5111317;28;20055;-55
2023/07/26 07:12:31;;;;;;;12.20;6.47;;;;;;;;;;5113980;28;20035;-56
2023/07/26 07:14:57;;;;;;;8.98;6.28;;;;;;;;;;5111072;28;20026;-58
2023/07/26 07:17:23;;;;;;;10.90;6.22;;;;;;;;;;5113811;28;20138;-58
2023/07/26 07:19:48;;;;;;;12.00;6.20;;;;;;;;;;5113217;28;20059;-57
2023/07/26 07:22:13;;;;;;;10.88;6.65;;;;;;;;;;5113653;28;20039;-60
2023/07/26 07:24:39;;;;;;;9.30;6.05;;;;;;;;;;5112859;28;20104;-58
2023/07/26 07:27:05;;;;;;;9.20;6.40;;;;;;;;;;5111537;28;20046;-58
2023/07/26 07:29:32;;;;;;;9.90;6.30;;;;;;;;;;5113661;28;20114;-57
2023/07/26 07:31:58;;;;;;;11.13;6.55;;;;;;;;;;5112677;28;20517;-58
2023/07/26 07:34:23;;;;;;;13.75;6.70;;;;;;;;;;5111818;28;20036;-57
2023/07/26 07:36:48;;;;;;;10.65;7.15;;;;;;;;;;5098289;28;20131;-57
2023/07/26 07:39:14;;;;;;;11.98;7.60;;;;;;;;;;5092806;28;20465;-58
2023/07/26 07:41:40;;;;;;;12.00;7.07;;;;;;;;;;5092902;28;20027;-57
2023/07/26 07:44:05;;;;;;;10.20;7.03;;;;;;;;;;5093671;28;20038;-57
2023/07/26 07:46:33;;;;;;;11.98;7.10;;;;;;;;;;5113247;28;20364;-58
2023/07/26 07:48:59;;;;;;;12.13;7.45;;;;;;;;;;5112239;28;20081;-58
2023/07/26 07:51:25;;;;;;;9.27;6.47;;;;;;;;;;5113110;28;20028;-57
2023/07/26 07:53:50;;;;;;;14.85;7.22;;;;;;;;;;5111647;28;20093;-57
2023/07/26 07:56:16;;;;;;;9.90;6.32;;;;;;;;;;5112709;28;20032;-58
2023/07/26 07:58:41;;;;;;;10.52;6.30;;;;;;;;;;5113010;28;20035;-58
2023/07/26 08:01:07;;;;;;;10.25;6.03;;;;;;;;;;5110897;28;20058;-58
2023/07/26 08:03:33;;;;;;;11.32;6.57;;;;;;;;;;5112639;28;20023;-57
2023/07/26 08:05:59;;;;;;;12.63;7.40;;;;;;;;;;5110890;28;20118;-57
2023/07/26 08:08:24;;;;;;;12.00;7.95;;;;;;;;;;5112657;28;20149;-56
2023/07/26 08:10:50;;;;;;;13.52;8.55;;;;;;;;;;5110577;28;20036;-59
2023/07/26 08:13:15;;;;;;;17.85;10.15;;;;;;;;;;5112761;28;20471;-57
2023/07/26 08:15:43;;;;;;;19.15;11.45;;;;;;;;;;5110352;28;20105;-57
2023/07/26 08:18:09;;;;;;;18.02;10.35;;;;;;;;;;5111405;28;20080;-59
2023/07/26 08:20:35;;;;;;;21.45;11.68;;;;;;;;;;5112740;28;20039;-59
2023/07/26 08:23:02;;;;;;;19.55;9.85;;;;;;;;;;5111728;28;20028;-60
2023/07/26 08:25:27;;;;;;;21.25;10.55;;;;;;;;;;5109239;28;20031;-59
2023/07/26 08:27:52;;;;;;;16.45;8.75;;;;;;;;;;5111805;28;20034;-59
2023/07/26 08:30:18;;;;;;;14.95;8.60;;;;;;;;;;5112040;28;20094;-59
2023/07/26 08:32:43;;;;;;;12.00;6.70;;;;;;;;;;5112019;28;20371;-58
2023/07/26 08:35:08;;;;;;;13.23;7.10;;;;;;;;;;5108883;28;20050;-58
2023/07/26 08:37:34;;;;;;;10.98;6.50;;;;;;;;;;5112304;28;20027;-59
2023/07/26 08:40:00;;;;;;;8.95;6.45;;;;;;;;;;5109589;28;20027;-58
2023/07/26 08:42:26;;;;;;;12.38;6.60;;;;;;;;;;5110581;28;20038;-58
2023/07/26 08:44:53;;;;;;;12.23;6.65;;;;;;;;;;5111703;28;20067;-59
2023/07/26 08:47:22;;;;;;;11.00;6.40;;;;;;;;;;5112580;28;20059;-58
2023/07/26 08:49:49;;;;;;;14.43;6.85;;;;;;;;;;5111613;28;20031;-59
2023/07/26 08:52:16;;;;;;;10.13;6.18;;;;;;;;;;5111216;28;20035;-58
2023/07/26 08:54:43;;;;;;;9.20;6.15;;;;;;;;;;5112363;28;20069;-58
2023/07/26 08:57:09;;;;;;;8.55;5.32;;;;;;;;;;5110614;28;20070;-58
2023/07/26 08:59:34;;;;;;;9.02;5.90;;;;;;;;;;5112551;28;20120;-58
2023/07/26 09:02:03;;;;;;;10.52;6.45;;;;;;;;;;5108997;28;20126;-58
2023/07/26 09:04:30;;;;;;;10.82;6.47;;;;;;;;;;5111571;28;20518;-58
2023/07/26 09:06:59;;;;;;;11.80;6.32;;;;;;;;;;5111334;28;20115;-58
2023/07/26 09:09:25;;;;;;;9.70;5.97;;;;;;;;;;5112026;28;20020;-58
2023/07/26 09:11:51;;;;;;;7.88;5.68;;;;;;;;;;5108637;28;20040;-59
2023/07/26 09:14:17;;;;;;;7.40;5.00;;;;;;;;;;5111708;28;20035;-58
2023/07/26 09:16:43;;;;;;;7.32;5.00;;;;;;;;;;5111801;28;20028;-58
2023/07/26 09:19:09;;;;;;;9.65;5.22;;;;;;;;;;5111222;28;20615;-59
2023/07/26 09:21:36;;;;;;;6.65;4.40;;;;;;;;;;5111316;28;20084;-58
2023/07/26 09:24:03;;;;;;;6.13;4.28;;;;;;;;;;5110357;28;20035;-60
2023/07/26 09:26:38;;;;;;;7.53;3.90;;;;;;;;;;5111999;28;20024;-58
2023/07/26 09:29:15;;;;;;;7.65;3.75;;;;;;;;;;5111063;28;20059;-59
2023/07/26 09:31:43;;;;;;;5.80;3.47;;;;;;;;;;5110826;28;20376;-60
2023/07/26 09:34:12;;;;;;;5.35;3.22;;;;;;;;;;5110928;28;20110;-59
2023/07/26 09:36:41;;;;;;;2.00;1.50;;;;;;;;;;5111839;28;20110;-57
2023/07/26 09:39:07;;;;;;;3.33;1.08;;;;;;;;;;5111000;28;20035;-57
2023/07/26 09:41:32;;;;;;;1.35;1.20;;;;;;;;;;5111807;28;20032;-58
2023/07/26 09:43:59;;;;;;;3.42;1.23;;;;;;;;;;5109179;28;20065;-58
2023/07/26 09:46:25;;;;;;;1.25;1.15;;;;;;;;;;5112157;28;20038;-58
2023/07/26 09:49:02;;;;;;;1.40;1.30;;;;;;;;;;5111932;28;20032;-60
2023/07/26 09:51:30;;;;;;;3.35;1.80;;;;;;;;;;5115234;28;20573;-60
2023/07/26 09:53:56;;;;;;;2.05;1.42;;;;;;;;;;5110164;28;20532;-60
2023/07/26 09:56:23;;;;;;;2.80;1.70;;;;;;;;;;5115471;28;20019;-59
2023/07/26 09:58:50;;;;;;;2.45;1.70;;;;;;;;;;5115390;28;20455;-61
2023/07/26 10:01:18;;;;;;;3.38;1.90;;;;;;;;;;5114842;28;20119;-59
2023/07/26 10:03:47;;;;;;;2.60;1.70;;;;;;;;;;5112435;28;20512;-60
2023/07/26 10:06:15;;;;;;;2.95;1.90;;;;;;;;;;5114536;28;20028;-59
2023/07/26 10:08:42;;;;;;;4.15;1.70;;;;;;;;;;5115198;28;20046;-59
2023/07/26 10:11:09;;;;;;;2.97;1.50;;;;;;;;;;5114132;28;20024;-60
2023/07/26 10:13:37;;;;;;;3.17;1.80;;;;;;;;;;5113589;28;20034;-59
2023/07/26 10:16:03;;;;;;;2.20;1.70;;;;;;;;;;5114234;28;20097;-59
2023/07/26 10:18:30;;;;;;;4.00;1.90;;;;;;;;;;5114826;28;20475;-58
2023/07/26 10:21:00;;;;;;;2.95;1.55;;;;;;;;;;5114080;28;20391;-59
2023/07/26 10:23:26;;;;;;;3.25;1.50;;;;;;;;;;5113958;28;20035;-59
2023/07/26 10:25:52;;;;;;;2.33;1.70;;;;;;;;;;5114983;28;20027;-60
2023/07/26 10:28:19;;;;;;;1.88;1.45;;;;;;;;;;5115209;28;20062;-59
2023/07/26 10:30:45;;;;;;;2.05;1.40;;;;;;;;;;5115031;28;20118;-59
2023/07/26 10:33:14;;;;;;;1.40;1.10;;;;;;;;;;5111572;28;20024;-59
2023/07/26 10:35:42;;;;;;;1.75;1.55;;;;;;;;;;5114727;28;20027;-59
2023/07/26 10:38:08;;;;;;;2.42;1.70;;;;;;;;;;5113811;28;20031;-59
2023/07/26 10:40:36;;;;;;;2.05;1.30;;;;;;;;;;5114359;28;20399;-59
2023/07/26 10:43:19;;;;;;;3.55;1.80;;;;;;;;;;5112448;28;20154;-59
2023/07/26 10:45:49;;;;;;;4.85;2.10;;;;;;;;;;5114234;28;20111;-59
2023/07/26 10:48:37;;;;;;;3.38;1.83;;;;;;;;;;5113864;28;20640;-59
2023/07/26 10:51:22;;;;;;;3.80;1.90;;;;;;;;;;5113529;28;20042;-59
2023/07/26 10:53:48;;;;;;;4.40;2.30;;;;;;;;;;5111812;28;20475;-59
2023/07/26 10:56:21;;;;;;;3.17;2.20;;;;;;;;;;5113499;28;20059;-59
2023/07/26 10:59:17;;;;;;;3.30;2.30;;;;;;;;;;5114287;28;20042;-60
2023/07/26 11:01:44;;;;;;;4.97;2.15;;;;;;;;;;5112528;28;20085;-60
2023/07/26 11:04:11;;;;;;;4.50;2.40;;;;;;;;;;5112275;28;20042;-59
2023/07/26 11:06:57;;;;;;;4.75;2.30;;;;;;;;;;5113952;28;20031;-58
2023/07/26 11:09:28;;;;;;;3.38;2.60;;;;;;;;;;5114089;28;20028;-59
2023/07/26 11:12:03;;;;;;;3.95;2.60;;;;;;;;;;5111454;28;20040;-60
2023/07/26 11:14:32;;;;;;;5.78;2.90;;;;;;;;;;5113799;28;20027;-59
2023/07/26 11:17:00;;;;;;;4.68;2.67;;;;;;;;;;5113189;28;20031;-59
2023/07/26 11:19:27;;;;;;;4.95;2.83;;;;;;;;;;5113976;28;20031;-59
2023/07/26 11:22:03;;;;;;;3.90;2.65;;;;;;;;;;5111865;28;20445;-59
2023/07/26 11:24:28;;;;;;;4.90;2.97;;;;;;;;;;5111827;28;20036;-59
2023/07/26 11:26:54;;;;;;;5.15;2.85;;;;;;;;;;5113545;28;20394;-59
2023/07/26 11:29:22;;;;;;;5.07;3.00;;;;;;;;;;5112679;28;20393;-59
2023/07/26 11:31:48;;;;;;;5.95;3.20;;;;;;;;;;5111194;28;20027;-59
2023/07/26 11:34:18;;;;;;;4.10;2.70;;;;;;;;;;5112302;28;20028;-59
2023/07/26 11:36:44;;;;;;;3.67;2.83;;;;;;;;;;5113506;28;20349;-59
2023/07/26 11:39:24;;;;;;;4.57;3.10;;;;;;;;;;5112587;28;20118;-59
2023/07/26 11:41:51;;;;;;;5.65;2.90;;;;;;;;;;5112439;28;20499;-57
2023/07/26 11:44:21;;;;;;;4.78;3.13;;;;;;;;;;5112356;28;20661;-58
2023/07/26 11:46:47;;;;;;;5.78;3.25;;;;;;;;;;5113141;28;20032;-54
2023/07/26 11:49:22;;;;;;;5.65;3.80;;;;;;;;;;5112385;28;20124;-52
2023/07/26 11:51:49;;;;;;;6.85;3.83;;;;;;;;;;5112035;28;20038;-55
2023/07/26 11:54:14;;;;;;;6.85;4.28;;;;;;;;;;5109715;28;20533;-56
2023/07/26 11:56:41;;;;;;;5.32;4.10;;;;;;;;;;5112925;28;20071;-57
2023/07/26 11:59:08;;;;;;;7.40;4.45;;;;;;;;;;5112321;28;20036;-58
2023/07/26 12:01:36;;;;;;;7.18;4.40;;;;;;;;;;5110675;28;20038;-57
2023/07/26 12:04:16;;;;;;;7.55;4.47;;;;;;;;;;5111890;28;20393;-58
2023/07/26 12:06:44;;;;;;;7.78;3.97;;;;;;;;;;5113174;28;20475;-57
2023/07/26 12:09:10;;;;;;;7.82;4.60;;;;;;;;;;5111709;28;20035;-57
2023/07/26 12:11:41;;;;;;;6.30;4.25;;;;;;;;;;5109893;28;20084;-58
2023/07/26 12:14:07;;;;;;;7.97;4.70;;;;;;;;;;5112133;28;20074;-57
2023/07/26 12:16:34;;;;;;;7.68;4.10;;;;;;;;;;5113505;28;20198;-58
2023/07/26 12:19:00;;;;;;;6.50;4.40;;;;;;;;;;5112302;28;20055;-59
2023/07/26 12:21:29;;;;;;;9.90;4.65;;;;;;;;;;5111386;28;20063;-59
2023/07/26 12:23:59;;;;;;;10.65;5.32;;;;;;;;;;5112573;28;20031;-59
2023/07/26 12:26:26;;;;;;;7.20;5.00;;;;;;;;;;5112194;28;20028;-59
2023/07/26 12:28:54;;;;;;;8.98;4.95;;;;;;;;;;5112464;27;20283;-59
2023/07/26 12:31:23;;;;;;;9.65;5.47;;;;;;;;;;5108804;28;20043;-59
2023/07/26 12:33:56;;;;;;;13.23;5.65;;;;;;;;;;5109319;28;20038;-58
2023/07/26 12:36:23;;;;;;;7.45;5.03;;;;;;;;;;5091220;28;20039;-59
2023/07/26 12:38:49;;;;;;;6.93;5.00;;;;;;;;;;5092213;28;20334;-59
2023/07/26 12:41:14;;;;;;;6.75;4.13;;;;;;;;;;5093913;28;20392;-58
2023/07/26 12:43:39;;;;;;;7.38;4.47;;;;;;;;;;5112112;28;20027;-58
2023/07/26 12:46:05;;;;;;;7.32;4.80;;;;;;;;;;5111175;28;20035;-59
2023/07/26 12:48:34;;;;;;;9.25;5.00;;;;;;;;;;5112339;28;20084;-58
2023/07/26 12:51:00;;;;;;;8.43;4.70;;;;;;;;;;5109778;28;20486;-59
2023/07/26 12:53:26;;;;;;;8.15;4.55;;;;;;;;;;5111927;28;20099;-58
2023/07/26 12:55:53;;;;;;;3.47;2.60;;;;;;;;;;5112431;28;20028;-52
2023/07/26 12:58:18;;;;;;;5.70;3.47;;;;;;;;;;5111329;28;20036;-56
2023/07/26 13:00:44;;;;;;;10.40;5.10;;;;;;;;;;5112224;28;20087;-58
2023/07/26 13:03:10;;;;;;;12.55;6.25;;;;;;;;;;5109210;28;20476;-60
2023/07/26 13:05:37;;;;;;;12.77;7.75;;;;;;;;;;5110466;28;20027;-58
2023/07/26 13:08:02;;;;;;;9.98;7.18;;;;;;;;;;5111778;28;20027;-61
2023/07/26 13:10:28;;;;;;;7.97;4.60;;;;;;;;;;5111786;28;20038;-61
2023/07/26 13:12:54;;;;;;;6.07;4.22;;;;;;;;;;5110042;28;20027;-59
2023/07/26 13:15:20;;;;;;;5.32;4.15;;;;;;;;;;5111259;28;20375;-60
2023/07/26 13:17:47;;;;;;;5.80;4.18;;;;;;;;;;5112108;28;20069;-58
2023/07/26 13:20:13;;;;;;;6.35;4.43;;;;;;;;;;5111279;28;20122;-60
2023/07/26 13:22:39;;;;;;;5.72;3.50;;;;;;;;;;5110433;28;20061;-60
2023/07/26 13:25:05;;;;;;;5.93;3.60;;;;;;;;;;5114917;28;20031;-61
2023/07/26 13:27:30;;;;;;;6.90;4.32;;;;;;;;;;5116310;28;20031;-61
2023/07/26 13:29:56;;;;;;;7.03;4.40;;;;;;;;;;5114447;28;20374;-59
2023/07/26 13:32:21;;;;;;;6.20;4.35;;;;;;;;;;5113318;28;20028;-59
2023/07/26 13:34:47;;;;;;;5.90;4.40;;;;;;;;;;5097419;28;20024;-59
2023/07/26 13:37:13;;;;;;;5.55;4.22;;;;;;;;;;5114924;28;20109;-59
2023/07/26 13:39:38;;;;;;;6.97;4.30;;;;;;;;;;5115530;28;20050;-58
2023/07/26 13:42:04;;;;;;;6.80;4.30;;;;;;;;;;5113746;28;20046;-59
2023/07/26 13:44:29;;;;;;;7.93;4.07;;;;;;;;;;5114043;28;20097;-58
2023/07/26 13:46:55;;;;;;;6.18;4.30;;;;;;;;;;5115408;28;20023;-58
2023/07/26 13:49:20;;;;;;;6.35;4.18;;;;;;;;;;5114706;27;20081;-58
2023/07/26 13:51:46;;;;;;;6.40;4.03;;;;;;;;;;5112729;28;20390;-58
2023/07/26 13:54:12;;;;;;;7.03;4.07;;;;;;;;;;5112530;28;20039;-58
2023/07/26 13:56:37;;;;;;;6.07;4.03;;;;;;;;;;5115298;28;20551;-57
2023/07/26 13:59:03;;;;;;;6.25;4.10;;;;;;;;;;5115398;28;20027;-58
2023/07/26 14:01:30;;;;;;;6.43;4.05;;;;;;;;;;5112281;28;20039;-58
2023/07/26 14:03:55;;;;;;;5.50;3.65;;;;;;;;;;5114850;28;20027;-58
2023/07/26 14:06:23;;;;;;;5.50;3.70;;;;;;;;;;5114303;28;20035;-58
2023/07/26 14:08:49;;;;;;;6.40;3.70;;;;;;;;;;5115478;28;20040;-58
2023/07/26 14:11:14;;;;;;;7.10;3.95;;;;;;;;;;5113330;28;20471;-59
2023/07/26 14:13:40;;;;;;;6.60;3.80;;;;;;;;;;5115021;28;20451;-59
2023/07/26 14:16:06;;;;;;;6.05;3.40;;;;;;;;;;5114290;28;20387;-60
2023/07/26 14:18:31;;;;;;;6.18;3.45;;;;;;;;;;5114652;28;20110;-60
2023/07/26 14:20:57;;;;;;;6.03;3.33;;;;;;;;;;5115369;27;20383;-60
2023/07/26 14:23:22;;;;;;;9.35;3.80;;;;;;;;;;5112514;28;20043;-60
2023/07/26 14:25:47;;;;;;;5.57;3.63;;;;;;;;;;5113611;28;20066;-61
2023/07/26 14:28:13;;;;;;;6.22;4.13;;;;;;;;;;5114046;28;20357;-61
2023/07/26 14:30:39;;;;;;;8.00;4.03;;;;;;;;;;5114765;27;20043;-60
2023/07/26 14:33:05;;;;;;;6.85;3.80;;;;;;;;;;5110786;27;20041;-60
2023/07/26 14:35:30;;;;;;;7.35;4.07;;;;;;;;;;5111264;28;20438;-60